createdAt,value
2022-10-30T00:02:32.344Z,14.00
2022-10-30T00:05:21.030Z,13.90
2022-10-30T00:08:08.086Z,13.90
2022-10-30T00:10:55.300Z,13.90
2022-10-30T00:13:44.704Z,13.80
2022-10-30T00:16:31.960Z,13.80
2022-10-30T00:19:19.030Z,13.90
2022-10-30T00:24:53.573Z,13.80
2022-10-30T00:27:40.557Z,13.80
2022-10-30T00:30:27.757Z,13.70
2022-10-30T00:33:15.000Z,13.70
2022-10-30T00:36:02.622Z,13.70
2022-10-30T00:38:51.018Z,13.60
2022-10-30T00:41:41.954Z,13.50
2022-10-30T00:44:38.559Z,13.40
2022-10-30T00:47:31.109Z,13.40
2022-10-30T00:50:22.158Z,13.40
2022-10-30T00:53:12.653Z,13.40
2022-10-30T00:56:06.417Z,13.40
2022-10-30T00:58:59.732Z,13.40
2022-10-30T01:01:47.931Z,13.70
2022-10-30T01:04:38.220Z,13.60
2022-10-30T01:07:25.673Z,13.60
2022-10-30T01:10:13.952Z,13.60
2022-10-30T01:13:03.617Z,13.70
2022-10-30T01:16:02.489Z,13.70
2022-10-30T01:18:53.881Z,13.60
2022-10-30T01:21:55.400Z,13.40
2022-10-30T01:24:51.497Z,13.40
2022-10-30T01:27:45.944Z,13.20
2022-10-30T01:30:46.472Z,13.20
2022-10-30T01:33:44.282Z,13.10
2022-10-30T01:36:37.705Z,13.10
2022-10-30T01:39:28.269Z,13.00
2022-10-30T01:42:54.574Z,13.00
2022-10-30T01:46:01.435Z,13.00
2022-10-30T01:48:58.963Z,12.80
2022-10-30T01:51:56.956Z,12.80
2022-10-30T01:54:53.220Z,12.70
2022-10-30T01:57:46.121Z,12.70
2022-10-30T02:00:33.651Z,12.80
2022-10-30T02:03:22.886Z,13.00
2022-10-30T02:06:10.532Z,13.20
2022-10-30T02:08:57.745Z,13.30
2022-10-30T02:11:46.151Z,13.20
2022-10-30T02:14:37.406Z,13.10
2022-10-30T02:17:27.193Z,13.00
2022-10-30T02:20:19.572Z,13.00
2022-10-30T02:23:08.861Z,12.90
2022-10-30T02:25:56.114Z,12.80
2022-10-30T02:28:43.354Z,12.80
2022-10-30T02:31:31.142Z,12.60
2022-10-30T02:34:18.624Z,12.60
2022-10-30T02:37:06.944Z,12.60
2022-10-30T02:39:54.034Z,12.60
2022-10-30T02:42:41.272Z,12.50
2022-10-30T02:45:28.231Z,12.50
2022-10-30T02:48:15.400Z,12.50
2022-10-30T02:51:03.231Z,12.60
2022-10-30T02:53:51.721Z,12.60
2022-10-30T02:56:40.918Z,12.50
2022-10-30T02:59:28.191Z,12.50
2022-10-30T03:02:15.966Z,12.50
2022-10-30T03:05:03.232Z,12.60
2022-10-30T03:07:51.423Z,12.70
2022-10-30T03:10:40.213Z,13.00
2022-10-30T03:13:28.515Z,13.10
2022-10-30T03:16:17.807Z,13.10
2022-10-30T03:19:05.254Z,13.10
2022-10-30T03:21:54.754Z,13.00
2022-10-30T03:24:42.341Z,13.00
2022-10-30T03:27:31.389Z,13.00
2022-10-30T03:30:18.736Z,13.10
2022-10-30T03:33:05.879Z,13.10
2022-10-30T03:35:53.468Z,13.20
2022-10-30T03:38:40.729Z,13.10
2022-10-30T03:41:29.645Z,13.10
2022-10-30T03:44:18.140Z,13.20
2022-10-30T03:47:05.420Z,13.30
2022-10-30T03:49:57.966Z,13.30
2022-10-30T03:52:44.987Z,13.30
2022-10-30T03:55:32.233Z,13.30
2022-10-30T03:58:19.610Z,13.30
2022-10-30T04:01:09.049Z,13.30
2022-10-30T04:03:59.170Z,13.30
2022-10-30T04:06:46.494Z,13.30
2022-10-30T04:09:33.722Z,13.30
2022-10-30T04:12:20.948Z,13.40
2022-10-30T04:15:09.588Z,13.40
2022-10-30T04:17:58.726Z,13.30
2022-10-30T04:20:47.326Z,13.20
2022-10-30T04:23:35.238Z,13.30
2022-10-30T04:26:22.603Z,13.30
2022-10-30T04:29:09.828Z,13.20
2022-10-30T04:31:56.969Z,13.10
2022-10-30T04:34:45.301Z,13.00
2022-10-30T04:37:32.413Z,13.00
2022-10-30T04:40:19.194Z,12.80
2022-10-30T04:43:14.947Z,12.80
2022-10-30T04:46:06.272Z,12.70
2022-10-30T04:48:53.520Z,12.70
2022-10-30T04:51:42.002Z,12.80
2022-10-30T04:54:29.132Z,12.80
2022-10-30T04:57:16.357Z,12.80
2022-10-30T05:00:05.200Z,12.80
2022-10-30T05:02:52.737Z,12.80
2022-10-30T05:05:41.126Z,12.90
2022-10-30T05:08:30.798Z,12.90
2022-10-30T05:11:20.469Z,13.10
2022-10-30T05:14:07.629Z,13.10
2022-10-30T05:16:54.801Z,13.10
2022-10-30T05:19:42.141Z,13.10
2022-10-30T05:22:29.000Z,13.10
2022-10-30T05:25:17.685Z,13.10
2022-10-30T05:28:06.822Z,13.10
2022-10-30T05:31:01.729Z,13.10
2022-10-30T05:34:09.685Z,13.00
2022-10-30T05:36:59.080Z,13.00
2022-10-30T05:39:46.447Z,13.10
2022-10-30T05:42:47.776Z,13.10
2022-10-30T05:45:35.007Z,13.10
2022-10-30T05:48:23.391Z,13.10
2022-10-30T05:51:10.573Z,13.20
2022-10-30T05:54:00.983Z,13.20
2022-10-30T05:56:49.441Z,13.20
2022-10-30T05:59:37.761Z,13.10
2022-10-30T06:02:25.266Z,13.10
2022-10-30T06:05:12.492Z,13.00
2022-10-30T06:07:59.713Z,13.10
2022-10-30T06:10:46.779Z,13.10
2022-10-30T06:13:41.240Z,13.10
2022-10-30T06:16:34.214Z,13.10
2022-10-30T06:19:33.414Z,13.10
2022-10-30T06:22:36.475Z,13.30
2022-10-30T06:25:39.349Z,13.50
2022-10-30T06:28:41.108Z,13.60
2022-10-30T06:31:28.326Z,13.60
2022-10-30T06:34:17.136Z,13.60
2022-10-30T06:37:04.062Z,13.60
2022-10-30T06:39:51.243Z,13.70
2022-10-30T06:42:57.481Z,13.70
2022-10-30T06:45:59.762Z,13.70
2022-10-30T06:48:47.577Z,13.70
2022-10-30T06:51:37.228Z,13.70
2022-10-30T06:54:24.200Z,13.70
2022-10-30T06:57:20.107Z,13.70
2022-10-30T07:00:25.867Z,13.80
2022-10-30T07:03:35.340Z,13.80
2022-10-30T07:06:22.566Z,13.80
2022-10-30T07:09:11.225Z,13.80
2022-10-30T07:12:02.683Z,13.90
2022-10-30T07:15:22.245Z,13.90
2022-10-30T07:18:24.539Z,13.90
2022-10-30T07:21:15.784Z,14.00
2022-10-30T07:24:02.701Z,14.00
2022-10-30T07:26:56.501Z,13.90
2022-10-30T07:30:17.925Z,13.90
2022-10-30T07:33:23.666Z,14.10
2022-10-30T07:36:25.077Z,14.10
2022-10-30T07:39:24.144Z,14.10
2022-10-30T07:42:26.917Z,14.20
2022-10-30T07:45:46.581Z,14.30
2022-10-30T07:48:51.604Z,14.40
2022-10-30T07:51:50.075Z,14.50
2022-10-30T07:54:38.519Z,14.60
2022-10-30T07:57:50.076Z,14.70
2022-10-30T08:00:59.558Z,14.80
2022-10-30T08:03:51.729Z,14.90
2022-10-30T08:06:47.139Z,15.00
2022-10-30T08:09:34.273Z,15.10
2022-10-30T08:12:22.723Z,15.10
2022-10-30T08:15:11.727Z,15.20
2022-10-30T08:17:58.592Z,15.20
2022-10-30T08:20:50.473Z,15.30
2022-10-30T08:23:37.868Z,15.50
2022-10-30T08:26:31.249Z,15.90
2022-10-30T08:29:18.431Z,16.50
2022-10-30T08:32:08.860Z,17.00
2022-10-30T08:35:28.193Z,17.40
2022-10-30T08:38:15.756Z,17.60
2022-10-30T08:41:04.387Z,17.90
2022-10-30T08:43:53.325Z,18.10
2022-10-30T08:46:40.180Z,18.20
2022-10-30T08:49:28.661Z,18.40
2022-10-30T08:52:18.283Z,18.40
2022-10-30T08:55:10.097Z,18.90
2022-10-30T08:57:57.683Z,18.90
2022-10-30T09:00:44.974Z,19.10
2022-10-30T09:03:51.989Z,19.20
2022-10-30T09:06:58.894Z,18.80
2022-10-30T09:10:03.702Z,18.70
2022-10-30T09:12:56.017Z,19.40
2022-10-30T09:15:44.458Z,19.70
2022-10-30T09:18:32.427Z,20.10
2022-10-30T09:21:19.649Z,20.00
2022-10-30T09:24:13.316Z,20.20
2022-10-30T09:27:00.546Z,20.10
2022-10-30T09:29:48.278Z,20.60
2022-10-30T09:32:42.239Z,20.90
2022-10-30T09:35:32.276Z,21.20
2022-10-30T09:38:19.649Z,20.50
2022-10-30T09:41:24.038Z,21.10
2022-10-30T09:44:21.964Z,21.50
2022-10-30T09:47:23.659Z,21.50
2022-10-30T09:50:26.344Z,21.20
2022-10-30T09:53:31.397Z,21.30
2022-10-30T09:56:30.571Z,21.60
2022-10-30T09:59:30.304Z,22.00
2022-10-30T10:02:34.882Z,22.60
2022-10-30T10:05:25.635Z,22.30
2022-10-30T10:08:47.177Z,21.90
2022-10-30T10:12:00.059Z,21.90
2022-10-30T10:14:49.272Z,22.00
2022-10-30T10:17:42.446Z,21.70
2022-10-30T10:20:34.045Z,21.40
2022-10-30T10:23:28.069Z,21.20
2022-10-30T10:26:30.337Z,21.40
2022-10-30T10:29:42.759Z,21.30
2022-10-30T10:33:12.802Z,21.40
2022-10-30T10:36:18.925Z,21.20
2022-10-30T10:39:18.927Z,20.90
2022-10-30T10:42:18.526Z,20.40
2022-10-30T10:45:23.780Z,20.20
2022-10-30T10:48:32.810Z,20.30
2022-10-30T10:51:23.797Z,20.40
2022-10-30T10:54:15.385Z,20.50
2022-10-30T10:57:06.278Z,20.40
2022-10-30T10:59:57.671Z,20.70
2022-10-30T11:02:52.385Z,20.80
2022-10-30T11:05:47.595Z,21.00
2022-10-30T11:08:35.352Z,21.10
2022-10-30T11:11:22.337Z,20.80
2022-10-30T11:14:14.935Z,21.00
2022-10-30T11:17:14.292Z,20.90
2022-10-30T11:20:14.363Z,21.00
2022-10-30T11:23:01.715Z,21.10
2022-10-30T11:25:49.038Z,21.20
2022-10-30T11:28:42.104Z,21.10
2022-10-30T11:31:34.730Z,20.90
2022-10-30T11:34:29.769Z,21.10
2022-10-30T11:37:31.456Z,20.90
2022-10-30T11:40:21.561Z,21.10
2022-10-30T11:43:12.746Z,21.30
2022-10-30T11:46:00.167Z,21.00
2022-10-30T11:48:54.481Z,20.90
2022-10-30T11:51:44.327Z,20.80
2022-10-30T11:54:37.566Z,20.90
2022-10-30T11:57:29.464Z,20.80
2022-10-30T12:00:19.613Z,20.90
2022-10-30T12:03:28.629Z,20.90
2022-10-30T12:06:20.318Z,20.90
2022-10-30T12:09:13.349Z,21.00
2022-10-30T12:12:10.697Z,21.20
2022-10-30T12:15:10.509Z,21.30
2022-10-30T12:18:01.556Z,21.40
2022-10-30T12:20:53.629Z,21.30
2022-10-30T12:23:41.323Z,21.40
2022-10-30T12:26:30.208Z,21.50
2022-10-30T12:29:21.963Z,21.30
2022-10-30T12:32:15.774Z,21.40
2022-10-30T12:35:09.638Z,21.50
2022-10-30T12:38:00.133Z,21.40
2022-10-30T12:41:01.155Z,21.40
2022-10-30T12:43:57.051Z,21.40
2022-10-30T12:46:49.322Z,21.30
2022-10-30T12:49:41.743Z,21.40
2022-10-30T12:52:34.388Z,21.40
2022-10-30T12:55:27.617Z,21.40
2022-10-30T12:58:23.510Z,21.40
2022-10-30T13:01:17.375Z,21.40
2022-10-30T13:04:11.581Z,21.40
2022-10-30T13:07:04.500Z,21.60
2022-10-30T13:10:03.365Z,21.70
2022-10-30T13:12:54.587Z,21.60
2022-10-30T13:15:46.649Z,21.60
2022-10-30T13:18:33.883Z,21.60
2022-10-30T13:21:29.057Z,21.50
2022-10-30T13:24:23.033Z,21.60
2022-10-30T13:27:16.571Z,21.60
2022-10-30T13:30:06.776Z,21.50
2022-10-30T13:33:05.356Z,21.50
2022-10-30T13:36:00.398Z,21.60
2022-10-30T13:38:56.074Z,21.50
2022-10-30T13:41:57.221Z,21.50
2022-10-30T13:44:54.145Z,21.50
2022-10-30T13:47:49.095Z,21.50
2022-10-30T13:50:55.663Z,21.40
2022-10-30T13:53:46.636Z,21.40
2022-10-30T13:56:36.465Z,21.40
2022-10-30T13:59:42.531Z,21.30
2022-10-30T14:02:43.155Z,21.30
2022-10-30T14:05:37.590Z,21.30
2022-10-30T14:08:34.318Z,21.20
2022-10-30T14:11:21.323Z,21.10
2022-10-30T14:14:30.043Z,21.10
2022-10-30T14:17:18.594Z,21.10
2022-10-30T14:20:28.752Z,21.00
2022-10-30T14:23:20.950Z,21.00
2022-10-30T14:26:16.060Z,20.90
2022-10-30T14:29:46.814Z,20.90
2022-10-30T14:32:40.093Z,20.90
2022-10-30T14:35:34.084Z,20.80
2022-10-30T14:38:27.044Z,20.70
2022-10-30T14:41:36.869Z,20.60
2022-10-30T14:44:57.321Z,20.60
2022-10-30T14:47:58.402Z,20.50
2022-10-30T14:50:58.267Z,20.50
2022-10-30T14:53:58.544Z,20.30
2022-10-30T14:56:48.934Z,20.20
2022-10-30T14:59:36.730Z,20.20
2022-10-30T15:02:35.976Z,20.10
2022-10-30T15:05:45.565Z,19.90
2022-10-30T15:08:59.604Z,19.70
2022-10-30T15:12:08.929Z,19.60
2022-10-30T15:14:59.101Z,19.50
2022-10-30T15:17:48.827Z,19.30
2022-10-30T15:20:39.927Z,19.20
2022-10-30T15:23:30.400Z,19.10
2022-10-30T15:26:22.235Z,18.90
2022-10-30T15:29:18.004Z,18.70
2022-10-30T15:32:15.518Z,18.60
2022-10-30T15:35:04.848Z,18.50
2022-10-30T15:38:05.823Z,18.40
2022-10-30T15:40:58.148Z,18.30
2022-10-30T15:43:45.979Z,18.10
2022-10-30T15:46:33.394Z,18.00
2022-10-30T15:49:28.244Z,17.90
2022-10-30T15:52:17.981Z,17.80
2022-10-30T15:55:10.691Z,17.70
2022-10-30T15:58:04.383Z,17.60
2022-10-30T16:01:00.295Z,17.50
2022-10-30T16:03:52.615Z,17.30
2022-10-30T16:06:39.763Z,17.20
2022-10-30T16:09:29.081Z,17.10
2022-10-30T16:12:17.514Z,17.00
2022-10-30T16:15:08.649Z,17.00
2022-10-30T16:18:07.502Z,16.90
2022-10-30T16:20:57.344Z,16.90
2022-10-30T16:23:49.911Z,16.70
2022-10-30T16:26:38.760Z,16.60
2022-10-30T16:29:28.740Z,16.50
2022-10-30T16:32:17.517Z,16.50
2022-10-30T16:35:06.409Z,16.50
2022-10-30T16:37:54.696Z,16.50
2022-10-30T16:40:41.924Z,16.30
2022-10-30T16:43:31.432Z,16.10
2022-10-30T16:46:46.765Z,15.90
2022-10-30T16:49:35.697Z,15.90
2022-10-30T16:52:26.951Z,15.80
2022-10-30T16:55:21.043Z,15.80
2022-10-30T16:58:08.116Z,15.80
2022-10-30T17:00:56.811Z,15.80
2022-10-30T17:03:45.393Z,15.60
2022-10-30T17:06:40.274Z,15.70
2022-10-30T17:09:30.114Z,15.60
2022-10-30T17:12:21.158Z,15.60
2022-10-30T17:15:14.488Z,15.50
2022-10-30T17:18:12.049Z,15.50
2022-10-30T17:21:06.786Z,15.40
2022-10-30T17:23:56.821Z,15.30
2022-10-30T17:26:43.810Z,15.20
2022-10-30T17:29:46.637Z,15.30
2022-10-30T17:32:45.791Z,15.10
2022-10-30T17:35:35.605Z,15.20
2022-10-30T17:38:24.255Z,15.10
2022-10-30T17:41:14.386Z,15.00
2022-10-30T17:44:02.218Z,14.90
2022-10-30T17:46:51.000Z,14.90
2022-10-30T17:49:38.105Z,14.90
2022-10-30T17:52:25.929Z,14.80
2022-10-30T17:55:26.905Z,14.80
2022-10-30T17:58:14.241Z,14.70
2022-10-30T18:01:03.249Z,14.60
2022-10-30T18:03:50.812Z,14.50
2022-10-30T18:06:37.895Z,14.60
2022-10-30T18:09:24.805Z,14.50
2022-10-30T18:12:15.122Z,14.40
2022-10-30T18:15:12.922Z,14.40
2022-10-30T18:18:00.307Z,14.40
2022-10-30T18:20:47.096Z,14.40
2022-10-30T18:26:41.304Z,14.30
2022-10-30T18:29:29.895Z,14.30
2022-10-30T18:32:17.251Z,14.10
2022-10-30T18:35:13.845Z,14.10
2022-10-30T18:38:01.573Z,14.10
2022-10-30T18:40:50.682Z,14.00
2022-10-30T18:43:37.457Z,14.00
2022-10-30T18:46:26.142Z,13.90
2022-10-30T18:49:13.535Z,14.00
2022-10-30T18:52:00.506Z,13.90
2022-10-30T18:54:47.492Z,13.70
2022-10-30T18:57:34.607Z,13.80
2022-10-30T19:00:25.045Z,13.80
2022-10-30T19:03:13.332Z,13.70
2022-10-30T19:06:00.382Z,13.70
2022-10-30T19:08:48.509Z,13.60
2022-10-30T19:11:38.273Z,13.40
2022-10-30T19:14:26.448Z,13.20
2022-10-30T19:17:13.794Z,13.10
2022-10-30T19:20:02.541Z,13.10
2022-10-30T19:22:49.817Z,13.00
2022-10-30T19:25:37.419Z,13.00
2022-10-30T19:28:25.736Z,12.90
2022-10-30T19:31:16.287Z,13.00
2022-10-30T19:34:04.275Z,13.10
2022-10-30T19:36:52.773Z,13.10
2022-10-30T19:39:39.859Z,13.20
2022-10-30T19:42:27.018Z,13.00
2022-10-30T19:45:14.754Z,13.00
2022-10-30T19:48:12.338Z,13.00
2022-10-30T19:50:59.498Z,12.90
2022-10-30T19:53:48.069Z,13.00
2022-10-30T19:56:35.407Z,12.90
2022-10-30T19:59:22.833Z,12.90
2022-10-30T20:02:12.535Z,12.80
2022-10-30T20:04:59.689Z,12.80
2022-10-30T20:07:58.958Z,12.80
2022-10-30T20:10:51.968Z,12.70
2022-10-30T20:13:39.421Z,12.60
2022-10-30T20:16:26.532Z,12.50
2022-10-30T20:19:28.805Z,12.60
2022-10-30T20:22:15.777Z,12.60
2022-10-30T20:25:02.875Z,12.70
2022-10-30T20:30:45.587Z,12.60
2022-10-30T20:33:32.939Z,12.60
2022-10-30T20:36:20.043Z,12.50
2022-10-30T20:39:07.249Z,12.50
2022-10-30T20:41:54.369Z,12.50
2022-10-30T20:44:42.861Z,12.50
2022-10-30T20:47:30.256Z,12.50
2022-10-30T20:50:18.785Z,12.30
2022-10-30T20:53:06.646Z,12.40
2022-10-30T20:55:54.083Z,12.40
2022-10-30T20:58:41.730Z,12.30
2022-10-30T21:01:30.141Z,12.20
2022-10-30T21:04:17.368Z,12.30
2022-10-30T21:07:04.716Z,12.30
2022-10-30T21:09:51.790Z,12.20
2022-10-30T21:12:38.785Z,12.20
2022-10-30T21:15:26.382Z,12.20
2022-10-30T21:18:15.130Z,12.00
2022-10-30T21:21:02.534Z,12.00
2022-10-30T21:23:54.065Z,12.10
2022-10-30T21:26:41.410Z,12.10
2022-10-30T21:29:31.261Z,12.00
2022-10-30T21:32:21.339Z,12.00
2022-10-30T21:35:10.419Z,12.00
2022-10-30T21:37:57.429Z,12.00
2022-10-30T21:40:44.495Z,11.90
2022-10-30T21:43:31.528Z,12.00
2022-10-30T21:46:18.886Z,11.90
2022-10-30T21:49:07.825Z,11.90
2022-10-30T21:51:56.341Z,11.90
2022-10-30T21:54:43.427Z,11.90
2022-10-30T21:57:30.717Z,11.80
2022-10-30T22:00:18.312Z,11.90
2022-10-30T22:03:05.337Z,11.70
2022-10-30T22:05:52.691Z,11.50
2022-10-30T22:08:41.961Z,11.60
2022-10-30T22:11:29.604Z,11.60
2022-10-30T22:14:16.842Z,11.60
2022-10-30T22:17:03.802Z,11.60
2022-10-30T22:19:50.647Z,11.60
2022-10-30T22:22:37.944Z,11.60
2022-10-30T22:25:26.729Z,11.50
2022-10-30T22:28:13.626Z,11.50
2022-10-30T22:31:04.826Z,11.40
2022-10-30T22:33:52.467Z,11.40
2022-10-30T22:36:39.629Z,11.40
2022-10-30T22:39:26.906Z,11.40
2022-10-30T22:42:15.243Z,11.40
2022-10-30T22:45:02.297Z,11.30
2022-10-30T22:47:49.652Z,11.30
2022-10-30T22:50:36.901Z,11.20
2022-10-30T22:53:24.221Z,11.20
2022-10-30T22:56:17.665Z,11.20
2022-10-30T22:59:08.594Z,11.20
2022-10-30T23:01:55.667Z,11.10
2022-10-30T23:04:42.885Z,11.20
2022-10-30T23:07:30.181Z,11.20
2022-10-30T23:10:17.538Z,11.20
2022-10-30T23:13:04.813Z,11.20
2022-10-30T23:15:56.236Z,11.20
2022-10-30T23:18:46.431Z,11.20
2022-10-30T23:21:33.884Z,11.20
2022-10-30T23:24:21.046Z,11.10
2022-10-30T23:27:08.362Z,11.10
2022-10-30T23:29:55.531Z,11.10
2022-10-30T23:32:44.023Z,11.00
2022-10-30T23:35:31.180Z,11.00
2022-10-30T23:38:18.465Z,10.90
2022-10-30T23:41:05.696Z,10.90
2022-10-30T23:43:54.511Z,10.90
2022-10-30T23:46:42.475Z,10.90
2022-10-30T23:49:34.007Z,10.90
2022-10-30T23:52:21.315Z,10.70
2022-10-30T23:55:09.747Z,10.80
2022-10-30T23:57:57.178Z,10.80
